Adamsville, Ohio
Current Conditions -  °F | °C
As of 6:53 PM on Saturday 25 Oct 2014 (Local Time) from KZZV Reporting Station
Clear Clear  
Wind Chill: 66°   Ceiling: Unl
Heat Index: 66°   Visibility: 10mi
Dew Point: 52°   Wind: 8mph
Humidity: 60%   Direction: 240°WSW
Pressure: 29.81"   Gusts: NA
Location:  40.07°N, 81.88°W
Report Text: KZZV 252253Z AUTO 24007KT 10SM CLR 19/11 A2981 RMK AO2 SLP096 T01890111
Loading
Personal Weather Stations






























Interactive Weather Map
Tropical Storm Tracking
New forecast layout! Learn more

10-Day Weather Forecast

Advertisements
Track Severe Weather on mobile